Time;durP1;ratioP1;P1;durP2;ratioP2;P2;SDS_P1;SDS_P2;PMS_P1;PMS_P2;Temp;Humidity;BMP_temperature;BMP_pressure;BME280_temperature;BME280_humidity;BME280_pressure;Samples;Min_cycle;Max_cycle;Signal;HPM_P1;HPM_P2
2022/07/05 00:00:57;;;;;;;5.45;0.90;;;15.10;92.60;;;;;;5045959;28;20017;-68
2022/07/05 00:03:23;;;;;;;3.63;0.63;;;15.10;92.70;;;;;;5046219;28;20029;-69
2022/07/05 00:05:49;;;;;;;1.08;0.55;;;15.10;92.60;;;;;;5028254;28;20040;-69
2022/07/05 00:08:15;;;;;;;1.17;0.70;;;15.10;92.70;;;;;;5044730;28;20021;-68
2022/07/05 00:10:40;;;;;;;3.58;0.60;;;15.10;92.80;;;;;;5045744;28;20055;-69
2022/07/05 00:13:06;;;;;;;1.42;0.60;;;15.00;92.80;;;;;;5045737;28;20017;-69
2022/07/05 00:15:32;;;;;;;3.85;0.82;;;15.00;92.80;;;;;;5045688;28;20097;-67
2022/07/05 00:17:58;;;;;;;1.20;0.98;;;15.00;92.90;;;;;;5045479;28;20033;-68
2022/07/05 00:20:23;;;;;;;1.65;0.80;;;14.90;92.90;;;;;;5045777;28;20021;-68
2022/07/05 00:22:49;;;;;;;1.88;1.00;;;14.90;93.10;;;;;;5045482;28;20116;-69
2022/07/05 00:25:15;;;;;;;1.55;0.90;;;14.80;93.10;;;;;;5045191;28;20030;-68
2022/07/05 00:27:41;;;;;;;1.92;0.80;;;14.80;93.10;;;;;;5044922;28;20181;-68
2022/07/05 00:30:08;;;;;;;1.25;0.80;;;14.80;93.20;;;;;;5044443;28;20025;-68
2022/07/05 00:32:33;;;;;;;2.22;1.02;;;14.80;93.40;;;;;;5043702;28;20040;-68
2022/07/05 00:34:59;;;;;;;1.70;0.90;;;14.70;93.40;;;;;;5045047;28;20041;-68
2022/07/05 00:37:25;;;;;;;4.30;1.20;;;14.70;93.50;;;;;;5045100;28;20084;-68
2022/07/05 00:39:51;;;;;;;3.35;1.35;;;14.70;93.60;;;;;;5044070;28;20101;-69
2022/07/05 00:42:16;;;;;;;1.77;0.90;;;14.70;93.70;;;;;;5045241;28;20037;-69
2022/07/05 00:44:42;;;;;;;3.45;1.00;;;14.60;93.80;;;;;;5045003;28;20186;-69
2022/07/05 00:47:11;;;;;;;1.77;1.10;;;14.60;93.80;;;;;;5043856;28;20088;-69
2022/07/05 00:49:37;;;;;;;2.63;1.00;;;14.60;93.80;;;;;;5043784;28;20018;-68
2022/07/05 00:52:05;;;;;;;3.22;1.08;;;14.70;93.80;;;;;;5043827;28;20077;-68
2022/07/05 00:54:33;;;;;;;2.22;0.98;;;14.60;93.80;;;;;;5043512;28;20025;-68
2022/07/05 00:56:59;;;;;;;2.45;0.90;;;14.60;93.90;;;;;;5043789;28;20038;-68
2022/07/05 00:59:26;;;;;;;4.80;1.20;;;14.50;93.90;;;;;;5043611;28;20124;-68
2022/07/05 01:01:52;;;;;;;3.25;1.00;;;14.50;93.90;;;;;;5043752;28;20033;-68
2022/07/05 01:04:17;;;;;;;2.63;0.68;;;14.40;93.80;;;;;;5043496;28;20204;-68
2022/07/05 01:06:46;;;;;;;2.90;0.80;;;14.40;93.80;;;;;;5027029;28;20060;-69
2022/07/05 01:09:15;;;;;;;1.13;0.80;;;14.30;93.80;;;;;;5043503;28;20021;-68
2022/07/05 01:11:43;;;;;;;2.63;0.88;;;14.30;94.00;;;;;;5044704;28;20189;-69
2022/07/05 01:14:12;;;;;;;2.42;0.90;;;14.20;94.10;;;;;;5043369;28;20304;-68
2022/07/05 01:16:38;;;;;;;3.05;0.90;;;14.20;94.20;;;;;;5044392;28;20041;-68
2022/07/05 01:19:07;;;;;;;6.90;0.88;;;14.20;94.40;;;;;;5044450;28;20026;-68
2022/07/05 01:21:37;;;;;;;2.80;0.85;;;14.10;94.50;;;;;;5027160;28;20021;-68
2022/07/05 01:24:03;;;;;;;1.52;0.90;;;14.00;94.70;;;;;;5044080;28;20026;-68
2022/07/05 01:26:29;;;;;;;3.35;0.80;;;13.90;95.00;;;;;;5043451;28;20030;-68
2022/07/05 01:28:55;;;;;;;1.98;0.80;;;13.80;95.20;;;;;;5044208;28;20025;-69
2022/07/05 01:31:21;;;;;;;2.78;0.98;;;13.80;95.30;;;;;;5042826;28;20029;-68
2022/07/05 01:33:47;;;;;;;1.92;1.08;;;13.80;95.40;;;;;;5041841;28;20021;-68
2022/07/05 01:36:14;;;;;;;3.13;1.08;;;13.70;95.50;;;;;;5042802;28;20033;-69
2022/07/05 01:38:40;;;;;;;1.50;0.90;;;13.70;95.60;;;;;;5042769;28;20272;-68
2022/07/05 01:41:07;;;;;;;1.65;1.00;;;13.60;95.80;;;;;;5043042;28;20100;-68
2022/07/05 01:43:33;;;;;;;4.68;1.00;;;13.60;95.90;;;;;;5026705;28;20139;-68
2022/07/05 01:46:02;;;;;;;1.15;0.98;;;13.60;96.00;;;;;;5042854;28;20029;-68
2022/07/05 01:48:28;;;;;;;1.80;0.90;;;13.60;96.00;;;;;;5043993;28;20024;-68
2022/07/05 01:51:01;;;;;;;4.75;1.02;;;13.60;96.10;;;;;;5042699;28;20033;-68
2022/07/05 01:53:29;;;;;;;2.67;1.00;;;13.60;96.20;;;;;;5043833;28;20228;-68
2022/07/05 01:55:57;;;;;;;1.20;0.80;;;13.60;96.20;;;;;;5043485;28;20048;-68
2022/07/05 01:58:24;;;;;;;0.80;0.80;;;13.60;96.30;;;;;;5026299;28;20348;-68
2022/07/05 02:00:53;;;;;;;4.35;1.00;;;13.60;96.30;;;;;;5026005;28;20236;-68
2022/07/05 02:03:20;;;;;;;1.83;0.80;;;13.60;96.40;;;;;;5042781;28;20087;-68
2022/07/05 02:05:47;;;;;;;2.20;0.80;;;13.60;96.40;;;;;;5043891;28;20025;-68
2022/07/05 02:08:15;;;;;;;1.38;0.77;;;13.60;96.50;;;;;;5043985;28;20036;-67
2022/07/05 02:10:42;;;;;;;2.78;0.90;;;13.60;96.50;;;;;;5042522;28;20018;-68
2022/07/05 02:13:09;;;;;;;3.30;1.17;;;13.60;96.60;;;;;;5042536;28;20032;-68
2022/07/05 02:15:37;;;;;;;2.85;1.48;;;13.60;96.60;;;;;;5042019;28;20040;-68
2022/07/05 02:18:04;;;;;;;5.38;2.13;;;13.60;96.60;;;;;;5042795;28;20065;-68
2022/07/05 02:20:30;;;;;;;3.38;1.67;;;13.60;96.60;;;;;;5042372;28;20028;-68
2022/07/05 02:22:56;;;;;;;3.40;1.45;;;13.60;96.60;;;;;;5042506;28;20029;-68
2022/07/05 02:25:22;;;;;;;2.53;1.77;;;13.60;96.60;;;;;;5043197;28;20059;-68
2022/07/05 02:27:48;;;;;;;2.28;1.63;;;13.60;96.70;;;;;;5043697;28;20033;-68
2022/07/05 02:30:14;;;;;;;4.88;1.20;;;13.50;96.70;;;;;;5043512;28;20223;-68
2022/07/05 02:32:41;;;;;;;3.20;1.42;;;13.40;96.80;;;;;;5040780;28;20018;-68
2022/07/05 02:35:09;;;;;;;2.83;1.73;;;13.20;97.40;;;;;;5043293;28;20054;-67
2022/07/05 02:37:34;;;;;;;4.55;1.40;;;13.00;97.70;;;;;;5043476;28;20343;-68
2022/07/05 02:40:00;;;;;;;6.43;1.33;;;12.90;98.20;;;;;;5043398;28;20040;-68
2022/07/05 02:42:26;;;;;;;9.68;1.40;;;12.90;98.40;;;;;;5043586;28;20021;-68
2022/07/05 02:44:52;;;;;;;3.42;1.30;;;12.80;98.80;;;;;;5043299;28;20044;-68
2022/07/05 02:47:17;;;;;;;1.80;1.10;;;12.80;98.90;;;;;;5025776;28;20044;-68
2022/07/05 02:49:43;;;;;;;2.17;1.30;;;12.70;99.10;;;;;;5042101;28;20360;-69
2022/07/05 02:52:08;;;;;;;2.17;1.27;;;12.60;99.30;;;;;;5043100;28;20053;-69
2022/07/05 02:54:34;;;;;;;1.25;1.10;;;12.60;99.40;;;;;;5043062;28;20036;-68
2022/07/05 02:57:00;;;;;;;4.95;1.33;;;12.50;99.50;;;;;;5043349;28;20379;-68
2022/07/05 02:59:26;;;;;;;4.13;1.13;;;12.50;99.70;;;;;;5043661;28;20061;-68
2022/07/05 03:01:51;;;;;;;3.72;1.13;;;12.40;99.90;;;;;;5043135;28;20029;-68
2022/07/05 03:04:17;;;;;;;5.70;1.20;;;12.40;99.90;;;;;;5043257;28;20285;-68
2022/07/05 03:06:44;;;;;;;1.98;1.45;;;12.30;99.90;;;;;;5043127;28;20217;-68
2022/07/05 03:09:10;;;;;;;4.47;1.10;;;12.30;99.90;;;;;;5043318;28;20033;-68
2022/07/05 03:11:36;;;;;;;1.83;1.30;;;12.40;99.90;;;;;;5042992;28;20024;-68
2022/07/05 03:14:01;;;;;;;1.65;1.30;;;12.30;99.90;;;;;;5043169;28;20033;-68
2022/07/05 03:16:29;;;;;;;2.85;1.33;;;12.30;99.90;;;;;;5043016;28;20052;-68
2022/07/05 03:18:55;;;;;;;3.22;1.20;;;12.20;99.90;;;;;;5042046;28;20041;-68
2022/07/05 03:21:20;;;;;;;2.03;1.30;;;12.20;99.90;;;;;;5041955;28;20025;-68
2022/07/05 03:23:46;;;;;;;2.17;1.27;;;12.20;99.90;;;;;;5043197;28;20022;-68
2022/07/05 03:26:12;;;;;;;2.33;1.40;;;12.10;99.90;;;;;;5041587;28;20034;-68
2022/07/05 03:28:37;;;;;;;6.00;1.33;;;12.10;99.90;;;;;;5028278;28;20025;-68
2022/07/05 03:31:03;;;;;;;2.08;1.88;;;12.10;99.90;;;;;;5046322;28;20028;-68
2022/07/05 03:33:29;;;;;;;3.65;1.60;;;12.00;99.90;;;;;;5045094;28;20026;-68
2022/07/05 03:35:54;;;;;;;2.00;1.65;;;11.90;99.90;;;;;;5046006;28;20030;-68
2022/07/05 03:38:20;;;;;;;5.80;1.45;;;11.90;99.90;;;;;;5045294;28;20021;-67
2022/07/05 03:40:46;;;;;;;2.38;1.42;;;11.90;99.90;;;;;;5045075;28;20024;-68
2022/07/05 03:43:11;;;;;;;3.83;1.55;;;11.90;99.90;;;;;;5046438;28;20053;-68
2022/07/05 03:45:37;;;;;;;3.33;1.90;;;11.90;99.90;;;;;;5046284;28;20067;-68
2022/07/05 03:48:03;;;;;;;7.20;1.98;;;11.80;99.90;;;;;;5046233;28;20025;-68
2022/07/05 03:50:28;;;;;;;5.25;1.80;;;11.70;99.90;;;;;;5046204;28;20028;-68
2022/07/05 03:52:54;;;;;;;7.00;1.83;;;11.70;99.90;;;;;;5044571;28;20085;-68
2022/07/05 03:55:20;;;;;;;4.97;1.80;;;11.70;99.90;;;;;;5045484;28;20021;-68
2022/07/05 03:57:47;;;;;;;2.83;1.60;;;11.80;99.90;;;;;;5045813;28;20029;-67
2022/07/05 04:00:13;;;;;;;4.82;2.17;;;11.80;99.90;;;;;;5046125;28;20048;-68
2022/07/05 04:02:39;;;;;;;2.95;2.08;;;11.80;99.90;;;;;;5044612;28;20025;-68
2022/07/05 04:05:06;;;;;;;7.60;1.92;;;11.80;99.90;;;;;;5045900;28;20118;-68
2022/07/05 04:07:32;;;;;;;3.63;1.60;;;11.80;99.90;;;;;;5044891;28;20021;-68
2022/07/05 04:09:58;;;;;;;3.28;1.67;;;11.80;99.90;;;;;;5044898;28;20029;-68
2022/07/05 04:12:24;;;;;;;3.45;1.80;;;11.90;99.90;;;;;;5045736;28;20036;-68
2022/07/05 04:14:49;;;;;;;4.45;1.75;;;11.90;99.90;;;;;;5045411;28;20030;-68
2022/07/05 04:17:15;;;;;;;5.28;2.03;;;11.90;99.90;;;;;;5044687;28;20021;-68
2022/07/05 04:19:41;;;;;;;9.00;1.70;;;11.90;99.90;;;;;;5045786;28;20109;-68
2022/07/05 04:22:06;;;;;;;5.25;1.90;;;11.90;99.90;;;;;;5044433;28;20029;-68
2022/07/05 04:25:16;;;;;;;7.15;1.98;;;11.90;99.90;;;;;;5045216;28;20021;-68
2022/07/05 04:27:18;;;;;;;5.80;1.80;;;12.00;99.90;;;;;;5044588;28;20013;-67
2022/07/05 04:29:44;;;;;;;3.00;1.45;;;11.90;99.90;;;;;;5045275;28;20260;-68
2022/07/05 04:32:09;;;;;;;6.03;2.05;;;11.90;99.90;;;;;;5044286;28;20029;-68
2022/07/05 04:34:35;;;;;;;4.45;1.60;;;11.90;99.90;;;;;;5043547;28;20040;-68
2022/07/05 04:37:00;;;;;;;3.72;1.50;;;11.90;99.90;;;;;;5045091;28;20093;-68
2022/07/05 04:39:26;;;;;;;2.90;1.50;;;12.00;99.90;;;;;;5044836;28;20021;-68
2022/07/05 04:41:51;;;;;;;3.03;1.80;;;12.00;99.90;;;;;;5044081;28;20040;-68
2022/07/05 04:44:17;;;;;;;3.05;2.17;;;12.10;99.90;;;;;;5044127;28;20028;-68
2022/07/05 04:46:43;;;;;;;3.72;1.65;;;12.20;99.90;;;;;;5043869;28;20017;-68
2022/07/05 04:49:08;;;;;;;2.30;2.00;;;12.20;99.90;;;;;;5027509;28;20194;-68
2022/07/05 04:51:34;;;;;;;8.65;2.72;;;12.40;99.90;;;;;;5044540;28;20057;-68
2022/07/05 04:53:59;;;;;;;8.48;1.98;;;12.60;99.90;;;;;;5044724;28;20022;-68
2022/07/05 04:56:25;;;;;;;4.45;1.70;;;12.90;99.90;;;;;;5044780;28;20048;-68
2022/07/05 04:58:51;;;;;;;5.65;2.22;;;13.20;99.90;;;;;;5044831;28;20060;-68
2022/07/05 05:01:16;;;;;;;2.63;1.90;;;13.50;99.30;;;;;;5044964;28;20048;-69
2022/07/05 05:03:42;;;;;;;6.00;2.13;;;13.80;98.80;;;;;;5044620;28;20013;-69
2022/07/05 05:06:08;;;;;;;6.97;1.90;;;14.20;98.20;;;;;;5044860;28;20028;-69
2022/07/05 05:08:34;;;;;;;5.88;1.95;;;14.50;97.50;;;;;;5044694;28;20363;-68
2022/07/05 05:10:59;;;;;;;4.90;1.63;;;14.80;96.70;;;;;;5043510;28;20064;-68
2022/07/05 05:13:25;;;;;;;5.13;1.70;;;14.90;96.30;;;;;;5044411;28;20088;-68
2022/07/05 05:15:50;;;;;;;5.50;1.52;;;14.70;96.50;;;;;;5044380;28;20022;-68
2022/07/05 05:18:18;;;;;;;5.45;1.48;;;14.50;96.90;;;;;;5044583;28;20212;-67
2022/07/05 05:20:44;;;;;;;5.80;2.30;;;14.40;97.20;;;;;;5044343;28;20025;-67
2022/07/05 05:23:09;;;;;;;3.92;1.50;;;14.20;97.70;;;;;;5044143;28;20219;-68
2022/07/05 05:25:36;;;;;;;5.85;2.00;;;14.10;98.20;;;;;;5043914;28;20059;-69
2022/07/05 05:28:03;;;;;;;6.82;1.60;;;14.00;98.50;;;;;;5044539;28;20022;-68
2022/07/05 05:30:28;;;;;;;5.07;1.50;;;14.00;98.80;;;;;;5044442;28;20036;-67
2022/07/05 05:32:54;;;;;;;5.18;1.80;;;14.10;98.90;;;;;;5042135;28;20025;-67
2022/07/05 05:35:21;;;;;;;6.25;2.05;;;14.10;98.90;;;;;;5042336;28;20029;-66
2022/07/05 05:37:55;;;;;;;7.78;1.80;;;14.20;98.80;;;;;;5042902;28;20037;-67
2022/07/05 05:40:22;;;;;;;14.20;2.40;;;14.10;99.00;;;;;;5044185;28;20025;-67
2022/07/05 05:42:49;;;;;;;15.63;2.70;;;14.10;99.20;;;;;;5043848;28;20040;-67
2022/07/05 05:45:15;;;;;;;11.27;1.90;;;14.30;99.20;;;;;;5042524;28;20040;-67
2022/07/05 05:47:46;;;;;;;9.13;1.52;;;14.40;99.40;;;;;;5042897;28;20025;-67
2022/07/05 05:50:12;;;;;;;3.55;0.98;;;14.70;99.40;;;;;;5041704;28;20023;-67
2022/07/05 05:52:37;;;;;;;3.22;1.00;;;14.90;98.50;;;;;;5043746;28;20041;-68
2022/07/05 05:55:05;;;;;;;5.80;0.82;;;15.00;98.20;;;;;;5041942;28;20096;-68
2022/07/05 05:57:31;;;;;;;5.32;1.00;;;15.00;98.20;;;;;;5043603;28;20021;-68
2022/07/05 05:59:57;;;;;;;4.40;1.15;;;15.10;98.10;;;;;;5043937;28;20036;-69
2022/07/05 06:02:23;;;;;;;3.45;1.52;;;15.00;98.30;;;;;;5043817;28;20021;-69
2022/07/05 06:04:48;;;;;;;5.40;1.83;;;15.00;98.50;;;;;;5042333;28;20099;-69
2022/07/05 06:07:14;;;;;;;2.45;1.25;;;15.10;98.40;;;;;;5043735;28;20064;-68
2022/07/05 06:09:39;;;;;;;4.32;1.42;;;15.10;98.40;;;;;;5042689;28;20287;-68
2022/07/05 06:12:05;;;;;;;7.40;1.60;;;15.20;98.30;;;;;;5041721;28;20033;-68
2022/07/05 06:14:31;;;;;;;6.07;1.38;;;15.20;98.30;;;;;;5041894;28;20025;-68
2022/07/05 06:16:56;;;;;;;5.93;1.85;;;15.20;98.40;;;;;;5043347;28;20067;-68
2022/07/05 06:19:22;;;;;;;2.25;1.33;;;15.30;98.40;;;;;;5043587;28;20032;-68
2022/07/05 06:21:48;;;;;;;4.40;1.25;;;15.40;98.20;;;;;;5042381;28;20308;-68
2022/07/05 06:24:13;;;;;;;8.70;1.20;;;15.50;98.00;;;;;;5042997;28;20079;-70
2022/07/05 06:26:39;;;;;;;5.00;1.10;;;15.60;97.80;;;;;;5025817;28;20100;-69
2022/07/05 06:29:04;;;;;;;4.68;1.13;;;15.70;97.50;;;;;;5043654;28;20086;-67
2022/07/05 06:31:30;;;;;;;3.97;1.25;;;15.80;97.40;;;;;;5043493;28;20063;-67
2022/07/05 06:33:56;;;;;;;3.80;1.23;;;15.80;97.20;;;;;;5043291;28;20036;-67
2022/07/05 06:36:21;;;;;;;5.88;1.35;;;15.90;97.20;;;;;;5041867;28;20093;-68
2022/07/05 06:38:47;;;;;;;6.80;1.10;;;16.00;96.90;;;;;;5042184;28;20068;-68
2022/07/05 06:41:13;;;;;;;4.18;0.90;;;16.00;96.40;;;;;;5043384;28;20033;-68
2022/07/05 06:43:38;;;;;;;7.97;1.33;;;16.10;95.80;;;;;;5025814;28;20044;-67
2022/07/05 06:46:04;;;;;;;5.25;1.17;;;16.20;95.40;;;;;;5043090;28;20055;-68
2022/07/05 06:48:30;;;;;;;4.63;0.95;;;16.40;94.80;;;;;;5043438;28;20339;-68
2022/07/05 06:50:56;;;;;;;2.63;1.08;;;16.30;94.60;;;;;;5041385;28;20017;-67
2022/07/05 06:53:21;;;;;;;4.32;1.10;;;16.30;94.80;;;;;;5025730;28;20052;-70
2022/07/05 06:55:47;;;;;;;3.42;0.77;;;16.40;95.00;;;;;;5042581;28;20300;-67
2022/07/05 06:58:12;;;;;;;6.22;1.10;;;16.50;94.50;;;;;;5043117;28;20025;-69
2022/07/05 07:00:40;;;;;;;7.28;1.30;;;16.50;94.30;;;;;;5043022;28;20043;-69
2022/07/05 07:03:06;;;;;;;5.47;1.02;;;16.60;94.10;;;;;;5045728;28;20049;-68
2022/07/05 07:05:31;;;;;;;4.57;1.02;;;16.60;94.50;;;;;;5045635;28;20032;-67
2022/07/05 07:10:43;;;;;;;5.57;1.40;;;16.80;94.60;;;;;;5045865;28;20026;-69
2022/07/05 07:13:08;;;;;;;3.42;1.02;;;16.80;94.70;;;;;;5045683;28;20033;-69
2022/07/05 07:15:34;;;;;;;5.45;1.25;;;16.90;94.00;;;;;;5046212;28;20018;-70
2022/07/05 07:18:00;;;;;;;5.60;1.27;;;17.00;93.60;;;;;;5043290;28;20063;-69
2022/07/05 07:20:27;;;;;;;2.85;1.17;;;17.00;92.90;;;;;;5058516;28;20024;-69
2022/07/05 07:22:53;;;;;;;4.00;1.08;;;17.10;92.70;;;;;;5065131;28;20054;-69
2022/07/05 07:25:20;;;;;;;4.88;1.30;;;17.00;92.50;;;;;;5046046;28;20317;-69
2022/07/05 07:27:49;;;;;;;6.55;1.02;;;17.00;92.90;;;;;;5046104;28;20071;-69
2022/07/05 07:30:17;;;;;;;2.95;1.10;;;17.00;92.70;;;;;;5028859;28;20028;-71
2022/07/05 07:32:44;;;;;;;4.40;0.90;;;17.20;92.60;;;;;;5028350;28;20208;-68
2022/07/05 07:35:10;;;;;;;4.15;1.10;;;17.20;92.60;;;;;;5044604;28;20263;-71
2022/07/05 07:37:37;;;;;;;6.47;1.02;;;17.30;92.40;;;;;;5076304;28;20037;-68
2022/07/05 07:40:04;;;;;;;7.65;1.50;;;17.50;91.80;;;;;;5046144;28;20088;-70
2022/07/05 07:42:30;;;;;;;4.95;1.00;;;17.60;91.90;;;;;;5045683;28;20255;-69
2022/07/05 07:44:55;;;;;;;7.93;1.45;;;17.80;91.60;;;;;;5045785;28;20071;-67
2022/07/05 07:47:21;;;;;;;5.30;1.10;;;18.00;91.10;;;;;;5045048;28;20022;-69
2022/07/05 07:49:47;;;;;;;2.92;0.90;;;18.00;91.00;;;;;;5045669;28;20319;-68
2022/07/05 07:52:14;;;;;;;4.10;0.90;;;18.00;90.70;;;;;;5044327;28;20095;-68
2022/07/05 07:54:39;;;;;;;5.03;0.88;;;18.30;90.70;;;;;;5044641;28;20089;-68
2022/07/05 07:57:05;;;;;;;6.20;1.25;;;18.30;90.10;;;;;;5045352;28;20305;-68
2022/07/05 07:59:32;;;;;;;4.85;1.08;;;18.30;89.40;;;;;;5043382;28;20025;-69
2022/07/05 08:01:58;;;;;;;4.72;0.90;;;18.10;89.60;;;;;;5043722;28;20056;-69
2022/07/05 08:04:24;;;;;;;2.17;0.98;;;18.00;90.20;;;;;;5043026;28;20018;-68
2022/07/05 08:06:50;;;;;;;7.35;1.40;;;18.10;90.40;;;;;;5043147;28;20096;-68
2022/07/05 08:09:15;;;;;;;5.93;1.35;;;18.20;90.70;;;;;;5043884;28;20028;-67
2022/07/05 08:11:41;;;;;;;3.45;1.20;;;18.30;90.10;;;;;;5025272;28;20051;-67
2022/07/05 08:14:07;;;;;;;1.35;0.65;;;18.50;90.20;;;;;;5042333;28;20041;-68
2022/07/05 08:16:32;;;;;;;5.75;0.90;;;18.70;90.10;;;;;;5043400;28;20296;-67
2022/07/05 08:21:47;;;;;;;4.07;1.13;;;19.00;89.70;;;;;;5043577;28;20024;-68
2022/07/05 08:24:13;;;;;;;4.22;1.17;;;19.20;88.90;;;;;;5043656;28;20314;-70
2022/07/05 08:26:39;;;;;;;3.90;1.00;;;19.40;87.90;;;;;;5042871;28;20323;-67
2022/07/05 08:29:07;;;;;;;3.38;0.82;;;19.50;88.30;;;;;;5043144;28;20071;-68
2022/07/05 08:31:36;;;;;;;12.05;1.88;;;19.50;88.00;;;;;;5042646;28;20342;-69
2022/07/05 08:34:02;;;;;;;4.15;1.02;;;19.40;88.10;;;;;;5041174;28;20041;-68
2022/07/05 08:36:28;;;;;;;4.55;1.25;;;19.40;88.30;;;;;;5041815;28;20021;-67
2022/07/05 08:38:53;;;;;;;9.82;1.15;;;19.40;88.30;;;;;;5042291;28;20065;-67
2022/07/05 08:41:21;;;;;;;2.92;0.85;;;19.40;87.90;;;;;;5043779;28;20092;-66
2022/07/05 08:43:48;;;;;;;10.88;1.45;;;19.40;86.80;;;;;;5044129;28;20123;-69
2022/07/05 08:46:16;;;;;;;4.35;1.15;;;19.40;86.80;;;;;;5042086;28;20026;-70
2022/07/05 08:48:43;;;;;;;4.60;1.15;;;19.50;86.10;;;;;;5043959;28;20025;-68
2022/07/05 08:51:14;;;;;;;2.63;0.90;;;19.40;86.50;;;;;;5043406;28;20036;-68
2022/07/05 08:53:41;;;;;;;3.07;0.87;;;19.60;86.40;;;;;;5025610;28;20225;-68
2022/07/05 08:56:09;;;;;;;3.03;0.85;;;19.70;86.20;;;;;;5026150;28;20262;-67
2022/07/05 08:58:36;;;;;;;4.28;0.98;;;19.70;85.20;;;;;;5043315;28;20040;-67
2022/07/05 09:01:02;;;;;;;7.05;1.40;;;19.60;86.00;;;;;;5042413;28;20102;-67
2022/07/05 09:03:33;;;;;;;5.97;1.50;;;19.70;86.50;;;;;;5043996;28;20364;-69
2022/07/05 09:06:01;;;;;;;9.18;1.50;;;19.80;86.80;;;;;;5043013;28;20032;-68
2022/07/05 09:08:29;;;;;;;3.90;1.25;;;20.00;86.80;;;;;;5044443;28;20344;-68
2022/07/05 09:10:55;;;;;;;4.10;1.00;;;20.00;85.90;;;;;;5046462;28;20021;-67
2022/07/05 09:13:20;;;;;;;6.97;1.60;;;20.00;85.10;;;;;;5062731;28;20024;-68
2022/07/05 09:15:46;;;;;;;3.75;1.20;;;19.80;85.10;;;;;;5078560;28;20036;-69
2022/07/05 09:18:12;;;;;;;3.63;1.23;;;19.90;85.40;;;;;;5051839;28;20018;-69
2022/07/05 09:20:38;;;;;;;5.10;1.30;;;19.90;84.70;;;;;;5051520;28;20043;-71
2022/07/05 09:23:04;;;;;;;7.85;1.33;;;20.10;84.90;;;;;;5052581;28;20021;-69
2022/07/05 09:25:31;;;;;;;4.13;1.38;;;20.10;84.00;;;;;;5052952;28;20019;-68
2022/07/05 09:28:04;;;;;;;6.85;1.33;;;20.20;85.10;;;;;;5063478;28;20036;-68
2022/07/05 09:30:33;;;;;;;5.22;1.50;;;20.30;85.00;;;;;;5055635;28;20030;-68
2022/07/05 09:33:02;;;;;;;5.65;1.45;;;20.50;83.50;;;;;;5040000;28;20026;-68
2022/07/05 09:35:32;;;;;;;4.40;1.50;;;20.50;83.20;;;;;;5042112;28;20025;-68
2022/07/05 09:37:58;;;;;;;4.28;1.40;;;20.50;83.20;;;;;;5041926;28;20025;-69
2022/07/05 09:40:24;;;;;;;6.50;1.30;;;20.40;82.70;;;;;;5023762;28;20025;-70
2022/07/05 09:42:49;;;;;;;4.82;1.10;;;20.20;83.90;;;;;;5043217;28;20032;-69
2022/07/05 09:45:23;;;;;;;4.88;1.17;;;20.20;83.30;;;;;;5043264;28;20025;-69
2022/07/05 09:47:49;;;;;;;4.13;1.40;;;20.00;83.20;;;;;;5042473;28;20099;-69
2022/07/05 09:50:32;;;;;;;6.95;1.42;;;20.10;83.20;;;;;;5043566;28;20025;-68
2022/07/05 09:52:57;;;;;;;9.77;1.23;;;20.00;84.00;;;;;;5043333;28;20057;-68
2022/07/05 09:55:23;;;;;;;9.35;1.90;;;19.90;84.30;;;;;;5042759;28;20193;-68
2022/07/05 09:57:50;;;;;;;3.55;0.90;;;19.80;84.90;;;;;;5042734;28;20098;-68
2022/07/05 10:00:18;;;;;;;7.60;1.67;;;20.10;85.60;;;;;;5042330;28;20320;-69
2022/07/05 10:02:47;;;;;;;4.30;1.40;;;20.40;84.70;;;;;;5058435;28;20025;-69
2022/07/05 10:05:15;;;;;;;5.43;1.35;;;20.80;83.50;;;;;;5042856;28;20040;-68
2022/07/05 10:07:44;;;;;;;4.47;1.00;;;20.90;82.20;;;;;;5058259;28;20022;-68
2022/07/05 10:10:15;;;;;;;12.18;1.85;;;20.60;82.20;;;;;;5041301;28;20029;-69
2022/07/05 10:12:42;;;;;;;4.93;0.93;;;20.60;82.90;;;;;;5041587;28;20025;-67
2022/07/05 10:15:10;;;;;;;8.82;1.60;;;20.80;82.60;;;;;;5040852;28;20262;-68
2022/07/05 10:17:40;;;;;;;5.50;1.30;;;20.90;82.70;;;;;;5025096;28;20227;-68
2022/07/05 10:20:30;;;;;;;7.88;1.42;;;21.00;82.00;;;;;;5041336;28;20036;-67
2022/07/05 10:22:57;;;;;;;4.22;1.30;;;21.20;80.90;;;;;;5055483;28;20048;-69
2022/07/05 10:25:23;;;;;;;5.60;1.25;;;20.70;82.70;;;;;;5042300;28;20032;-69
2022/07/05 10:27:53;;;;;;;5.47;1.35;;;20.40;83.80;;;;;;5041149;28;20053;-68
2022/07/05 10:30:21;;;;;;;3.70;1.10;;;20.30;84.10;;;;;;5040915;28;20276;-68
2022/07/05 10:32:48;;;;;;;6.95;1.38;;;20.30;84.90;;;;;;5041179;28;20084;-68
2022/07/05 10:35:16;;;;;;;6.97;1.50;;;20.40;84.60;;;;;;5040347;28;20216;-69
2022/07/05 10:37:43;;;;;;;5.10;1.33;;;20.70;84.20;;;;;;5045707;28;20096;-68
2022/07/05 10:40:09;;;;;;;7.43;1.48;;;20.80;83.80;;;;;;5043992;28;20036;-69
2022/07/05 10:42:40;;;;;;;6.80;1.33;;;20.90;82.80;;;;;;5044995;28;20028;-67
2022/07/05 10:45:27;;;;;;;1.77;1.00;;;20.60;82.80;;;;;;5044754;28;20033;-68
2022/07/05 10:48:13;;;;;;;5.68;1.40;;;20.40;83.40;;;;;;5044215;28;20215;-69
2022/07/05 10:51:19;;;;;;;5.13;1.17;;;20.30;84.10;;;;;;5031922;28;20396;-67
2022/07/05 10:54:05;;;;;;;4.93;1.33;;;20.40;83.90;;;;;;5044340;28;20033;-68
2022/07/05 10:56:30;;;;;;;7.38;1.42;;;20.50;84.50;;;;;;5059484;28;20044;-68
2022/07/05 10:59:12;;;;;;;4.63;1.30;;;20.80;84.20;;;;;;5045500;28;20021;-68
2022/07/05 11:01:40;;;;;;;4.35;1.50;;;21.10;83.60;;;;;;5044135;28;20051;-69
2022/07/05 11:04:27;;;;;;;4.82;1.60;;;21.40;82.90;;;;;;5061280;28;20092;-68
2022/07/05 11:06:52;;;;;;;7.68;1.40;;;21.60;82.30;;;;;;5060904;28;20029;-69
2022/07/05 11:09:19;;;;;;;4.65;1.40;;;21.70;81.70;;;;;;5046006;28;20312;-67
2022/07/05 11:12:01;;;;;;;6.38;1.58;;;21.60;82.40;;;;;;5045330;28;20022;-70
2022/07/05 11:14:31;;;;;;;;;;;21.70;82.50;;;;;;5061413;28;20010;-67
2022/07/05 11:17:22;;;;;;;6.55;1.40;;;21.40;82.30;;;;;;5045469;28;20111;-68
2022/07/05 11:20:10;;;;;;;6.15;1.60;;;21.20;83.10;;;;;;5044213;28;20224;-69
2022/07/05 11:22:39;;;;;;;10.98;2.03;;;21.10;83.80;;;;;;5044479;28;20052;-69
2022/07/05 11:25:06;;;;;;;6.85;1.83;;;21.30;84.10;;;;;;5027633;28;20017;-67
2022/07/05 11:27:33;;;;;;;11.60;2.13;;;21.50;83.70;;;;;;5044740;28;20021;-69
2022/07/05 11:29:59;;;;;;;7.07;1.65;;;21.70;83.70;;;;;;5061129;28;20080;-70
2022/07/05 11:32:36;;;;;;;8.80;2.10;;;21.70;83.00;;;;;;5045158;28;20036;-69
2022/07/05 11:35:19;;;;;;;10.38;2.38;;;21.60;83.20;;;;;;5060546;28;20033;-69
2022/07/05 11:38:07;;;;;;;8.20;1.88;;;21.60;83.30;;;;;;5060659;28;20028;-69
2022/07/05 11:40:34;;;;;;;8.60;1.70;;;21.70;83.40;;;;;;5042817;28;20071;-66
2022/07/05 11:43:02;;;;;;;5.65;1.70;;;21.70;82.80;;;;;;5045015;28;20033;-70
2022/07/05 11:45:28;;;;;;;4.65;1.42;;;21.80;82.30;;;;;;5044977;28;20033;-67
2022/07/05 11:47:57;;;;;;;11.00;1.73;;;21.80;82.40;;;;;;5042540;28;20030;-70
2022/07/05 11:50:31;;;;;;;9.40;1.70;;;21.70;82.40;;;;;;5044741;28;20013;-68
2022/07/05 11:52:58;;;;;;;5.13;1.42;;;21.80;82.70;;;;;;5044013;28;20224;-68
2022/07/05 11:55:27;;;;;;;10.55;1.85;;;21.90;82.90;;;;;;5044629;28;20018;-67
2022/07/05 11:57:54;;;;;;;7.68;1.67;;;21.90;82.10;;;;;;5043652;28;20305;-68
2022/07/05 12:00:36;;;;;;;6.28;1.52;;;21.90;82.80;;;;;;5043932;28;20303;-68
2022/07/05 12:03:10;;;;;;;;;;;21.90;83.20;;;;;;5043740;28;20057;-69
2022/07/05 12:05:36;;;;;;;10.65;1.75;;;21.80;83.80;;;;;;5044541;28;19901;-71
2022/07/05 12:08:01;;;;;;;6.68;1.35;;;21.90;84.30;;;;;;5043008;28;20347;-67
2022/07/05 12:13:12;;;;;;;12.40;1.60;;;21.70;83.90;;;;;;5043414;28;20239;-70
2022/07/05 12:15:39;;;;;;;7.20;2.05;;;21.80;84.50;;;;;;5043336;28;20063;-67
2022/07/05 12:18:07;;;;;;;9.30;1.88;;;21.80;85.00;;;;;;5044064;28;20186;-70
2022/07/05 12:20:35;;;;;;;7.70;1.45;;;21.80;85.10;;;;;;5044209;28;20021;-69
2022/07/05 12:23:01;;;;;;;8.52;1.75;;;21.80;84.70;;;;;;5026856;28;20136;-69
2022/07/05 12:25:29;;;;;;;9.30;2.08;;;21.70;85.30;;;;;;5044590;28;20206;-68
2022/07/05 12:27:57;;;;;;;6.38;1.73;;;21.50;86.00;;;;;;5042519;28;20033;-68
2022/07/05 12:30:23;;;;;;;9.57;2.05;;;21.40;86.20;;;;;;5059786;28;20040;-68
2022/07/05 12:33:10;;;;;;;11.05;1.90;;;21.40;86.20;;;;;;5043395;28;20063;-67
2022/07/05 12:35:43;;;;;;;7.40;1.60;;;21.70;85.60;;;;;;5042423;28;20036;-68
2022/07/05 12:38:16;;;;;;;11.15;1.58;;;21.90;85.20;;;;;;5059581;28;20091;-69
2022/07/05 12:40:43;;;;;;;12.57;1.70;;;22.00;85.00;;;;;;5043431;28;20031;-68
2022/07/05 12:43:11;;;;;;;11.38;1.80;;;22.20;84.80;;;;;;5043759;28;20025;-67
2022/07/05 12:45:39;;;;;;;8.02;1.90;;;22.00;84.60;;;;;;5043666;28;20416;-67
2022/07/05 12:48:06;;;;;;;7.13;1.65;;;21.80;85.20;;;;;;5043578;28;20045;-68
2022/07/05 12:50:49;;;;;;;7.80;1.88;;;21.70;85.20;;;;;;5042807;28;20017;-68
2022/07/05 12:58:53;;;;;;;6.75;1.65;;;21.60;85.70;;;;;;5028259;28;20025;-69
2022/07/05 13:01:20;;;;;;;6.22;1.60;;;21.70;86.20;;;;;;5042337;28;20039;-68
2022/07/05 13:04:06;;;;;;;8.60;1.83;;;21.90;85.20;;;;;;5040852;28;20082;-68